createdAt,value
2018-06-16T00:00:37.709Z,5.10
2018-06-16T00:03:07.674Z,4.90
2018-06-16T00:05:37.510Z,5.13
2018-06-16T00:08:07.559Z,5.97
2018-06-16T00:10:37.594Z,5.63
2018-06-16T00:13:07.410Z,5.90
2018-06-16T00:15:37.205Z,8.10
2018-06-16T00:18:06.934Z,8.07
2018-06-16T00:20:36.476Z,8.97
2018-06-16T00:23:06.242Z,8.67
2018-06-16T00:25:36.030Z,7.80
2018-06-16T00:28:05.980Z,8.00
2018-06-16T00:30:35.714Z,8.80
2018-06-16T00:33:05.396Z,9.03
2018-06-16T00:35:35.177Z,7.50
2018-06-16T00:38:04.822Z,9.17
2018-06-16T00:40:34.533Z,9.73
2018-06-16T00:43:04.321Z,8.37
2018-06-16T00:45:34.098Z,8.77
2018-06-16T00:48:03.679Z,9.60
2018-06-16T00:50:33.504Z,12.50
2018-06-16T00:53:03.272Z,10.50
2018-06-16T00:55:32.981Z,12.27
2018-06-16T00:58:02.709Z,10.00
2018-06-16T01:00:32.636Z,10.27
2018-06-16T01:03:02.429Z,8.20
2018-06-16T01:05:32.261Z,7.30
2018-06-16T01:08:01.963Z,6.17
2018-06-16T01:10:31.662Z,6.90
2018-06-16T01:13:01.774Z,8.87
2018-06-16T01:15:31.489Z,8.37
2018-06-16T01:18:01.205Z,6.57
2018-06-16T01:20:31.047Z,6.80
2018-06-16T01:23:00.979Z,6.17
2018-06-16T01:25:30.660Z,5.37
2018-06-16T01:28:00.488Z,8.30
2018-06-16T01:30:30.377Z,9.27
2018-06-16T01:33:00.023Z,9.20
2018-06-16T01:35:29.800Z,10.00
2018-06-16T01:37:59.517Z,7.40
2018-06-16T01:40:29.272Z,8.87
2018-06-16T01:42:58.926Z,9.03
2018-06-16T01:45:28.622Z,9.30
2018-06-16T01:47:58.342Z,11.23
2018-06-16T01:50:28.048Z,11.90
2018-06-16T01:52:57.781Z,10.97
2018-06-16T01:55:27.545Z,11.20
2018-06-16T01:57:57.433Z,10.77
2018-06-16T02:00:27.161Z,9.60
2018-06-16T02:02:57.004Z,9.23
2018-06-16T02:05:26.750Z,9.30
2018-06-16T02:07:56.531Z,9.50
2018-06-16T02:10:26.305Z,9.90
2018-06-16T02:12:56.074Z,10.90
2018-06-16T02:15:25.904Z,9.60
2018-06-16T02:17:55.682Z,10.80
2018-06-16T02:20:25.511Z,10.13
2018-06-16T02:22:55.213Z,11.20
2018-06-16T02:25:24.975Z,11.83
2018-06-16T02:27:54.816Z,11.47
2018-06-16T02:30:24.525Z,8.60
2018-06-16T02:32:54.247Z,9.80
2018-06-16T02:35:24.028Z,8.70
2018-06-16T02:37:54.109Z,10.00
2018-06-16T02:40:23.852Z,9.70
2018-06-16T02:42:53.636Z,9.50
2018-06-16T02:45:23.360Z,9.63
2018-06-16T02:47:53.120Z,9.50
2018-06-16T02:50:22.951Z,11.90
2018-06-16T02:52:52.812Z,13.60
2018-06-16T02:55:22.596Z,12.00
2018-06-16T02:57:52.448Z,14.07
2018-06-16T03:00:22.237Z,13.83
2018-06-16T03:02:51.935Z,13.63
2018-06-16T03:05:21.653Z,13.00
2018-06-16T03:07:51.362Z,10.50
2018-06-16T03:10:21.201Z,19.90
2018-06-16T03:12:50.930Z,11.67
2018-06-16T03:15:20.707Z,12.43
2018-06-16T03:21:22.862Z,11.53
2018-06-16T03:23:52.646Z,11.10
2018-06-16T03:26:22.494Z,11.23
2018-06-16T03:34:42.414Z,11.53
2018-06-16T03:37:12.009Z,11.30
2018-06-16T03:39:42.094Z,9.40
2018-06-16T03:42:12.879Z,11.10
2018-06-16T03:44:42.645Z,12.27
2018-06-16T03:47:12.347Z,11.47
2018-06-16T03:49:42.109Z,9.87
2018-06-16T03:52:11.867Z,10.97
2018-06-16T03:54:41.816Z,10.77
2018-06-16T03:57:11.604Z,9.57
2018-06-16T03:59:41.479Z,10.40
2018-06-16T04:02:11.301Z,9.53
2018-06-16T04:04:41.006Z,9.60
2018-06-16T04:07:10.767Z,8.00
2018-06-16T04:09:40.522Z,10.10
2018-06-16T04:12:10.256Z,10.83
2018-06-16T04:14:39.965Z,10.80
2018-06-16T04:17:16.965Z,9.67
2018-06-16T04:19:46.792Z,9.63
2018-06-16T04:22:17.085Z,10.70
2018-06-16T04:24:46.933Z,9.50
2018-06-16T04:27:16.609Z,7.93
2018-06-16T04:29:46.285Z,8.57
2018-06-16T04:32:16.330Z,7.03
2018-06-16T04:34:46.156Z,7.20
2018-06-16T04:37:15.895Z,8.30
2018-06-16T04:39:45.685Z,7.97
2018-06-16T04:42:15.385Z,7.17
2018-06-16T04:44:45.129Z,6.83
2018-06-16T04:47:14.874Z,9.63
2018-06-16T04:49:44.545Z,7.30
2018-06-16T04:52:15.052Z,9.27
2018-06-16T04:54:45.416Z,9.33
2018-06-16T04:57:15.084Z,8.80
2018-06-16T04:59:44.816Z,8.33
2018-06-16T05:02:14.556Z,7.20
2018-06-16T05:04:44.243Z,8.00
2018-06-16T05:07:13.965Z,8.40
2018-06-16T05:09:43.668Z,8.33
2018-06-16T05:12:13.322Z,6.90
2018-06-16T05:14:42.965Z,6.37
2018-06-16T05:17:12.621Z,7.40
2018-06-16T05:19:42.390Z,7.47
2018-06-16T05:22:11.984Z,7.80
2018-06-16T05:24:41.760Z,7.43
2018-06-16T05:27:11.571Z,9.00
2018-06-16T05:29:41.309Z,9.67
2018-06-16T05:32:11.063Z,9.03
2018-06-16T05:34:40.878Z,9.03
2018-06-16T05:37:10.609Z,8.53
2018-06-16T05:39:40.131Z,7.53
2018-06-16T05:42:09.873Z,8.27
2018-06-16T05:44:39.481Z,6.90
2018-06-16T05:47:09.192Z,7.07
2018-06-16T05:49:38.928Z,7.33
2018-06-16T05:52:08.720Z,7.60
2018-06-16T05:54:38.443Z,7.67
2018-06-16T05:57:08.128Z,8.03
2018-06-16T05:59:37.827Z,7.77
2018-06-16T06:02:07.597Z,5.70
2018-06-16T06:04:37.398Z,6.87
2018-06-16T06:07:07.234Z,7.70
2018-06-16T06:09:37.088Z,7.17
2018-06-16T06:12:06.896Z,6.50
2018-06-16T06:14:36.566Z,6.33
2018-06-16T06:17:06.850Z,6.10
2018-06-16T06:19:36.679Z,6.60
2018-06-16T06:22:06.599Z,6.20
2018-06-16T06:24:36.416Z,7.20
2018-06-16T06:27:06.244Z,6.77
2018-06-16T06:29:36.023Z,6.20
2018-06-16T06:32:05.738Z,7.67
2018-06-16T06:34:35.499Z,6.70
2018-06-16T06:37:05.486Z,6.83
2018-06-16T06:39:35.534Z,9.20
2018-06-16T06:42:05.309Z,7.53
2018-06-16T06:44:35.291Z,6.33
2018-06-16T06:47:05.166Z,8.10
2018-06-16T06:49:34.796Z,5.53
2018-06-16T06:52:04.590Z,6.57
2018-06-16T06:54:34.998Z,5.70
2018-06-16T06:57:04.786Z,5.70
2018-06-16T06:59:35.738Z,5.90
2018-06-16T07:02:05.859Z,6.00
2018-06-16T07:04:35.636Z,5.27
2018-06-16T07:07:07.083Z,6.80
2018-06-16T07:09:36.816Z,6.57
2018-06-16T07:12:08.091Z,7.50
2018-06-16T07:14:38.328Z,6.30
2018-06-16T07:17:08.134Z,6.40
2018-06-16T07:19:37.991Z,6.60
2018-06-16T07:22:08.263Z,5.40
2018-06-16T07:24:38.157Z,5.23
2018-06-16T07:27:07.957Z,4.77
2018-06-16T07:29:37.724Z,4.40
2018-06-16T07:32:07.496Z,5.53
2018-06-16T07:34:37.151Z,4.70
2018-06-16T07:37:07.517Z,4.23
2018-06-16T07:39:37.250Z,4.77
2018-06-16T07:42:07.016Z,4.10
2018-06-16T07:44:36.621Z,4.83
2018-06-16T07:47:06.472Z,5.10
2018-06-16T07:49:36.236Z,6.03
2018-06-16T07:52:05.950Z,4.23
2018-06-16T07:54:35.892Z,3.40
2018-06-16T07:57:05.606Z,3.27
2018-06-16T07:59:35.294Z,3.30
2018-06-16T08:02:05.055Z,3.40
2018-06-16T08:04:34.821Z,3.87
2018-06-16T08:07:04.653Z,2.80
2018-06-16T08:09:34.493Z,2.60
2018-06-16T08:12:04.999Z,5.60
2018-06-16T08:14:34.783Z,2.50
2018-06-16T08:17:05.140Z,2.00
2018-06-16T08:19:34.835Z,3.27
2018-06-16T08:22:05.798Z,2.60
2018-06-16T08:24:35.600Z,2.93
2018-06-16T08:27:05.431Z,2.77
2018-06-16T08:29:35.685Z,1.80
2018-06-16T08:32:08.942Z,2.50
2018-06-16T08:34:38.619Z,3.10
2018-06-16T08:37:08.392Z,1.67
2018-06-16T08:39:38.233Z,2.20
2018-06-16T08:42:09.923Z,2.00
2018-06-16T08:44:39.656Z,2.10
2018-06-16T08:47:09.531Z,2.90
2018-06-16T08:49:39.236Z,2.37
2018-06-16T08:52:09.065Z,2.00
2018-06-16T08:54:38.865Z,2.47
2018-06-16T08:57:08.726Z,2.03
2018-06-16T08:59:38.468Z,1.47
2018-06-16T09:02:08.188Z,1.90
2018-06-16T09:04:37.871Z,1.77
2018-06-16T09:07:07.557Z,1.80
2018-06-16T09:09:37.235Z,1.23
2018-06-16T09:12:07.054Z,1.60
2018-06-16T09:14:36.737Z,1.73
2018-06-16T09:17:06.492Z,1.90
2018-06-16T09:19:36.232Z,6.00
2018-06-16T09:22:05.906Z,2.00
2018-06-16T09:24:35.595Z,2.27
2018-06-16T09:27:05.827Z,3.17
2018-06-16T09:29:35.540Z,2.73
2018-06-16T09:32:05.229Z,2.70
2018-06-16T09:34:35.103Z,2.50
2018-06-16T09:37:04.748Z,2.30
2018-06-16T09:39:34.578Z,2.10
2018-06-16T09:42:04.834Z,3.83
2018-06-16T09:44:34.551Z,1.37
2018-06-16T09:47:04.298Z,1.97
2018-06-16T09:49:33.969Z,1.93
2018-06-16T09:52:03.708Z,1.40
2018-06-16T09:54:33.389Z,2.93
2018-06-16T09:57:03.160Z,2.63
2018-06-16T09:59:32.849Z,1.73
2018-06-16T10:02:02.521Z,2.20
2018-06-16T10:04:32.282Z,2.13
2018-06-16T10:07:02.214Z,1.90
2018-06-16T10:09:31.945Z,1.87
2018-06-16T10:12:01.828Z,2.67
2018-06-16T10:14:31.582Z,3.07
2018-06-16T10:17:01.241Z,2.03
2018-06-16T10:19:31.005Z,2.50
2018-06-16T10:22:00.766Z,2.03
2018-06-16T10:24:30.443Z,2.70
2018-06-16T10:27:00.195Z,2.63
2018-06-16T10:29:30.055Z,2.27
2018-06-16T10:31:59.726Z,2.20
2018-06-16T10:34:29.220Z,3.13
2018-06-16T10:36:58.938Z,2.60
2018-06-16T10:39:28.667Z,3.00
2018-06-16T10:41:58.344Z,1.60
2018-06-16T10:44:28.395Z,2.90
2018-06-16T10:46:58.035Z,1.63
2018-06-16T10:49:27.736Z,2.43
2018-06-16T10:51:57.446Z,2.50
2018-06-16T10:54:27.860Z,2.47
2018-06-16T10:56:57.621Z,3.00
2018-06-16T10:59:27.456Z,3.50
2018-06-16T11:01:57.139Z,2.30
2018-06-16T11:04:26.740Z,3.67
2018-06-16T11:07:00.098Z,2.37
2018-06-16T11:09:29.997Z,2.90
2018-06-16T11:11:59.684Z,3.30
2018-06-16T11:14:29.417Z,2.63
2018-06-16T11:16:59.252Z,2.93
2018-06-16T11:19:29.040Z,2.20
2018-06-16T11:21:58.944Z,2.50
2018-06-16T11:24:28.672Z,2.20
2018-06-16T11:26:58.395Z,2.77
2018-06-16T11:29:28.127Z,2.13
2018-06-16T11:31:57.897Z,2.90
2018-06-16T11:34:27.670Z,2.70
2018-06-16T11:36:57.479Z,3.20
2018-06-16T11:39:27.294Z,3.00
2018-06-16T11:41:56.931Z,3.90
2018-06-16T11:44:26.881Z,2.30
2018-06-16T11:47:02.181Z,2.73
2018-06-16T11:49:39.791Z,2.40
2018-06-16T11:52:15.015Z,3.97
2018-06-16T11:54:55.926Z,3.00
2018-06-16T11:57:25.707Z,4.03
2018-06-16T11:59:55.481Z,2.80
2018-06-16T12:02:25.408Z,4.77
2018-06-16T12:04:55.834Z,4.60
2018-06-16T12:07:28.724Z,3.30
2018-06-16T12:09:58.676Z,3.50
2018-06-16T12:12:29.291Z,1.80
2018-06-16T12:14:59.170Z,1.40
2018-06-16T12:17:28.957Z,1.00
2018-06-16T12:19:58.738Z,1.00
2018-06-16T12:22:28.533Z,0.87
2018-06-16T12:24:58.815Z,0.80
2018-06-16T12:27:28.894Z,0.70
2018-06-16T12:30:06.924Z,1.57
2018-06-16T12:32:38.169Z,0.80
2018-06-16T12:35:07.758Z,1.17
2018-06-16T12:37:37.470Z,1.03
2018-06-16T12:40:07.237Z,1.40
2018-06-16T12:42:38.555Z,0.63
2018-06-16T12:45:08.435Z,1.10
2018-06-16T12:47:38.422Z,1.30
2018-06-16T12:50:08.469Z,1.57
2018-06-16T12:52:38.999Z,1.20
2018-06-16T12:55:08.854Z,1.80
2018-06-16T12:57:39.622Z,1.00
2018-06-16T13:00:09.391Z,1.17
2018-06-16T13:02:40.112Z,1.40
2018-06-16T13:05:21.501Z,1.60
2018-06-16T13:07:54.524Z,1.43
2018-06-16T13:10:24.642Z,1.20
2018-06-16T13:12:55.062Z,1.63
2018-06-16T13:15:24.805Z,1.43
2018-06-16T13:24:47.627Z,1.17
2018-06-16T13:30:02.749Z,1.20
2018-06-16T13:32:32.437Z,2.13
2018-06-16T13:35:06.538Z,1.67
2018-06-16T13:37:37.598Z,1.50
2018-06-16T13:40:07.401Z,1.80
2018-06-16T13:42:37.502Z,1.53
2018-06-16T13:45:07.486Z,2.00
2018-06-16T13:47:37.250Z,1.40
2018-06-16T13:50:07.445Z,1.20
2018-06-16T13:52:37.216Z,2.10
2018-06-16T13:55:07.033Z,1.80
2018-06-16T13:57:44.098Z,2.00
2018-06-16T14:00:14.332Z,1.80
2018-06-16T14:02:44.145Z,2.33
2018-06-16T14:05:14.700Z,1.67
2018-06-16T14:07:44.443Z,1.93
2018-06-16T14:10:15.442Z,1.70
2018-06-16T14:12:47.042Z,1.60
2018-06-16T14:15:17.712Z,2.23
2018-06-16T14:17:47.886Z,2.33
2018-06-16T14:20:17.832Z,2.03
2018-06-16T14:22:48.527Z,1.40
2018-06-16T14:25:18.816Z,2.20
2018-06-16T14:27:48.653Z,1.90
2018-06-16T14:30:20.923Z,1.40
2018-06-16T14:32:50.763Z,1.90
2018-06-16T14:38:09.458Z,1.70
2018-06-16T14:40:40.529Z,1.80
2018-06-16T14:43:10.299Z,1.73
2018-06-16T14:45:40.082Z,2.20
2018-06-16T14:48:10.011Z,2.03
2018-06-16T14:50:40.618Z,1.37
2018-06-16T14:53:10.385Z,2.10
2018-06-16T14:55:40.141Z,2.13
2018-06-16T14:58:09.980Z,2.70
2018-06-16T15:00:39.768Z,1.90
2018-06-16T15:03:09.760Z,2.10
2018-06-16T15:05:39.526Z,2.13
2018-06-16T15:08:09.304Z,1.90
2018-06-16T15:10:39.067Z,1.60
2018-06-16T15:13:09.605Z,1.93
2018-06-16T15:18:30.901Z,2.67
2018-06-16T15:21:04.611Z,3.17
2018-06-16T15:23:35.185Z,3.80
2018-06-16T15:26:04.990Z,12.33
2018-06-16T15:28:35.197Z,2.47
2018-06-16T15:31:05.780Z,3.40
2018-06-16T15:33:36.460Z,2.67
2018-06-16T15:36:06.256Z,3.53
2018-06-16T15:38:36.035Z,3.93
2018-06-16T15:41:07.516Z,2.90
2018-06-16T15:43:37.230Z,3.73
2018-06-16T15:46:07.032Z,2.67
2018-06-16T15:48:36.895Z,3.40
2018-06-16T15:51:07.773Z,3.03
2018-06-16T15:53:37.463Z,3.87
2018-06-16T15:56:07.415Z,3.27
2018-06-16T15:58:37.551Z,3.73
2018-06-16T16:01:09.397Z,5.03
2018-06-16T16:03:39.110Z,3.53
2018-06-16T16:06:08.912Z,4.00
2018-06-16T16:08:38.645Z,3.20
2018-06-16T16:11:09.709Z,3.13
2018-06-16T16:13:40.707Z,3.53
2018-06-16T16:16:10.522Z,3.30
2018-06-16T16:18:40.289Z,3.70
2018-06-16T16:21:10.576Z,4.20
2018-06-16T16:23:46.122Z,3.93
2018-06-16T16:26:16.116Z,3.80
2018-06-16T16:28:45.841Z,3.93
2018-06-16T16:31:16.690Z,4.50
2018-06-16T16:33:46.561Z,3.43
2018-06-16T16:36:16.365Z,2.70
2018-06-16T16:38:46.158Z,2.43
2018-06-16T16:41:16.508Z,2.20
2018-06-16T16:43:47.346Z,2.67
2018-06-16T16:46:16.968Z,2.67
2018-06-16T16:48:47.436Z,1.93
2018-06-16T16:51:18.979Z,2.60
2018-06-16T16:53:51.685Z,2.17
2018-06-16T16:56:25.647Z,3.13
2018-06-16T16:58:55.482Z,2.30
2018-06-16T17:01:26.371Z,2.53
2018-06-16T17:03:58.337Z,2.47
2018-06-16T17:09:13.144Z,2.17
2018-06-16T17:18:33.479Z,2.70
2018-06-16T17:21:12.167Z,3.00
2018-06-16T17:23:58.477Z,3.37
2018-06-16T17:27:11.056Z,3.53
2018-06-16T17:29:51.960Z,2.93
2018-06-16T17:32:21.734Z,3.07
2018-06-16T17:34:51.535Z,2.50
2018-06-16T17:37:21.261Z,2.63
2018-06-16T17:39:51.668Z,2.97
2018-06-16T17:42:21.614Z,2.27
2018-06-16T17:44:51.268Z,3.57
2018-06-16T17:47:21.046Z,3.47
2018-06-16T17:49:50.880Z,3.13
2018-06-16T17:52:20.906Z,4.53
2018-06-16T17:54:50.784Z,4.30
2018-06-16T17:57:20.541Z,6.10
2018-06-16T17:59:50.445Z,5.63
2018-06-16T18:02:20.136Z,5.70
2018-06-16T18:04:49.758Z,4.00
2018-06-16T18:07:20.581Z,6.13
2018-06-16T18:09:53.543Z,11.70
2018-06-16T18:12:23.378Z,11.43
2018-06-16T18:14:53.089Z,6.73
2018-06-16T18:17:22.948Z,6.30
2018-06-16T18:19:53.413Z,6.10
2018-06-16T18:22:23.138Z,5.37
2018-06-16T18:24:53.060Z,4.37
2018-06-16T18:27:22.790Z,5.60
2018-06-16T18:29:53.185Z,5.33
2018-06-16T18:32:22.962Z,5.50
2018-06-16T18:34:52.729Z,6.20
2018-06-16T18:37:22.367Z,5.70
2018-06-16T18:39:52.425Z,5.00
2018-06-16T18:42:22.110Z,5.23
2018-06-16T18:44:51.916Z,5.40
2018-06-16T18:47:21.781Z,5.53
2018-06-16T18:49:51.642Z,5.20
2018-06-16T18:52:21.445Z,6.83
2018-06-16T18:54:51.798Z,6.60
2018-06-16T18:57:21.713Z,5.10
2018-06-16T18:59:51.437Z,7.23
2018-06-16T19:02:21.203Z,5.90
2018-06-16T19:04:50.953Z,6.63
2018-06-16T19:07:20.555Z,6.80
2018-06-16T19:09:50.289Z,5.83
2018-06-16T19:13:44.279Z,6.33
2018-06-16T19:16:13.915Z,6.10
2018-06-16T19:18:43.560Z,6.07
2018-06-16T19:21:13.245Z,5.60
2018-06-16T19:23:43.041Z,6.10
2018-06-16T19:26:12.894Z,6.97
2018-06-16T19:28:42.635Z,6.57
2018-06-16T19:31:12.286Z,6.93
2018-06-16T19:33:42.179Z,8.40
2018-06-16T19:36:11.775Z,7.73
2018-06-16T19:38:41.564Z,6.40
2018-06-16T19:41:11.339Z,5.43
2018-06-16T19:43:40.911Z,5.67
2018-06-16T19:46:10.709Z,5.70
2018-06-16T19:48:40.457Z,5.90
2018-06-16T19:51:10.075Z,5.87
2018-06-16T19:53:39.824Z,6.73
2018-06-16T19:56:09.857Z,6.80
2018-06-16T19:58:40.698Z,7.90
2018-06-16T20:01:10.410Z,6.60
2018-06-16T20:03:40.148Z,6.90
2018-06-16T20:06:09.979Z,6.30
2018-06-16T20:08:40.580Z,6.93
2018-06-16T20:11:10.244Z,7.67
2018-06-16T20:13:39.900Z,7.63
2018-06-16T20:16:10.696Z,5.87
2018-06-16T20:18:41.572Z,6.53
2018-06-16T20:21:11.176Z,5.10
2018-06-16T20:23:40.974Z,6.17
2018-06-16T20:26:10.567Z,6.47
2018-06-16T20:28:40.221Z,5.50
2018-06-16T20:31:10.199Z,5.50
2018-06-16T20:33:39.783Z,5.40
2018-06-16T20:36:09.481Z,5.47
2018-06-16T20:38:39.112Z,5.40
2018-06-16T20:41:08.864Z,7.50
2018-06-16T20:43:38.530Z,6.50
2018-06-16T20:46:08.380Z,6.60
2018-06-16T20:48:37.885Z,7.00
2018-06-16T20:51:07.663Z,7.73
2018-06-16T20:53:37.740Z,7.40
2018-06-16T20:56:07.811Z,6.20
2018-06-16T20:58:38.087Z,5.53
2018-06-16T21:01:07.908Z,6.30
2018-06-16T21:03:37.652Z,5.97
2018-06-16T21:06:07.519Z,6.30
2018-06-16T21:08:37.292Z,5.53
2018-06-16T21:11:07.047Z,6.90
2018-06-16T21:13:36.835Z,6.40
2018-06-16T21:16:06.669Z,6.03
2018-06-16T21:18:36.336Z,5.73
2018-06-16T21:21:06.142Z,5.80
2018-06-16T21:23:35.872Z,6.47
2018-06-16T21:26:05.566Z,5.50
2018-06-16T21:28:35.244Z,6.10
2018-06-16T21:31:04.857Z,5.63
2018-06-16T21:33:34.570Z,5.40
2018-06-16T21:36:04.208Z,5.07
2018-06-16T21:38:33.860Z,5.50
2018-06-16T21:41:03.625Z,7.10
2018-06-16T21:43:33.544Z,6.27
2018-06-16T21:46:03.235Z,5.57
2018-06-16T21:48:32.911Z,6.80
2018-06-16T21:51:02.707Z,7.40
2018-06-16T21:53:32.435Z,6.70
2018-06-16T21:56:02.173Z,5.77
2018-06-16T21:58:31.859Z,6.80
2018-06-16T22:01:01.937Z,5.90
2018-06-16T22:03:31.707Z,6.67
2018-06-16T22:06:01.483Z,6.80
2018-06-16T22:08:32.762Z,6.07
2018-06-16T22:11:04.271Z,6.33
2018-06-16T22:13:33.860Z,6.87
2018-06-16T22:16:03.645Z,7.20
2018-06-16T22:18:34.135Z,6.83
2018-06-16T22:21:03.944Z,6.30
2018-06-16T22:23:33.743Z,6.40
2018-06-16T22:26:03.519Z,7.00
2018-06-16T22:28:33.183Z,6.73
2018-06-16T22:31:02.953Z,7.50
2018-06-16T22:33:32.715Z,6.50
2018-06-16T22:36:02.374Z,7.70
2018-06-16T22:38:32.123Z,7.97
2018-06-16T22:41:01.918Z,7.20
2018-06-16T22:43:31.683Z,5.97
2018-06-16T22:46:01.435Z,6.90
2018-06-16T22:48:31.011Z,6.50
2018-06-16T22:51:00.770Z,7.43
2018-06-16T22:53:30.542Z,7.70
2018-06-16T22:56:00.123Z,6.13
2018-06-16T22:58:29.679Z,7.07
2018-06-16T23:00:59.254Z,7.20
2018-06-16T23:03:28.871Z,6.90
2018-06-16T23:05:58.511Z,7.30
2018-06-16T23:08:28.262Z,7.67
2018-06-16T23:10:58.015Z,6.93
2018-06-16T23:13:27.773Z,6.47
2018-06-16T23:15:57.555Z,6.80
2018-06-16T23:18:27.343Z,6.70
2018-06-16T23:20:57.225Z,6.97
2018-06-16T23:23:27.019Z,6.20
2018-06-16T23:25:56.677Z,6.87
2018-06-16T23:28:26.441Z,6.63
2018-06-16T23:30:56.221Z,6.07
2018-06-16T23:33:26.122Z,6.43
2018-06-16T23:35:56.151Z,5.90
2018-06-16T23:38:25.977Z,5.50
2018-06-16T23:40:55.744Z,6.33
2018-06-16T23:43:25.504Z,7.27
2018-06-16T23:45:55.143Z,7.00
2018-06-16T23:48:24.908Z,5.73
2018-06-16T23:50:55.078Z,6.47
2018-06-16T23:53:24.655Z,5.47
2018-06-16T23:55:54.420Z,6.47
2018-06-16T23:58:24.124Z,6.30
